• Join FlightAware (Why Join?)
  • Login
  • US Flag 
11:50PM EDT


 

Airport Tracker/Info


-or-


 

Live Flight TrackerFlight Track Log ✈ KAP17 ✈ 08-May-2013 ✈ KLEB - KBOS

Flight Track Log - Related Links

Times and Time Zones

All times are in EDT time to prevent confusion due to time zone crossing. See the KAP17 flight status page for this flight to view local times or setup timezone preferences in your user account.

Time Position Orientation Groundspeed Altitude Reporting Facility
EDT Latitude Longitude Course Direction KTS MPH feet Rate Location/Type
06:27AM 43.5981 -72.0981 144° Southeast  Level FlightAware Approximate
06:28AM 43.6733 -72.1961 144° Southeast 155 178 3,200  Level Boston Center
06:29AM 43.6483 -72.1733 147° Southeast 155 178 4,100 720 Climbing Boston Center
06:30AM 43.6233 -72.1361 133° Southeast 150 173 4,700 540 Climbing Boston Center
06:31AM 43.5983 -72.1019 135° Southeast 137 158 5,200 480 Climbing Boston Center
06:32AM 43.5753 -72.0675 133° Southeast 132 152 5,700 540 Climbing Boston Center
06:33AM 43.5522 -72.0333 133° Southeast 126 145 6,300 480 Climbing Boston Center
06:34AM 43.5269 -72.0019 138° Southeast 121 139 6,700 300 Climbing Boston Center
06:35AM 43.4997 -71.9622 133° Southeast 126 145 6,900 60 Climbing Boston Center
06:36AM 43.4725 -71.9222 133° Southeast 131 151 6,900  Level Boston Center
06:37AM 43.4411 -71.8797 135° Southeast 146 168 6,900  Level Boston Center
06:38AM 43.4011 -71.8342 140° Southeast 146 168 6,900  Level Boston Center
06:39AM 43.3697 -71.7975 140° Southeast 146 168 6,900 -120 Level Boston Center
06:40AM 43.3383 -71.7636 142° Southeast 146 168 6,700 -360 Descending Boston Center
06:41AM 43.3025 -71.7211 139° Southeast 152 175 6,200 -420 Descending Boston Center
06:42AM 43.2647 -71.6817 143° Southeast 159 183 5,900 -180 Descending Boston Center
06:43AM 43.2311 -71.6422 139° Southeast 164 189 5,900  Level Boston Center
06:44AM 43.1997 -71.6083 142° Southeast 158 182 5,900  Level Boston Center
06:45AM 43.1661 -71.5689 139° Southeast 158 182 5,900  Level Boston Center
06:46AM 43.1333 -71.5333 142° Southeast 150 173 5,900  Level KA90
06:47AM 43.1000 -71.5000 144° Southeast 148 170 5,900 -60 Level KA90
06:48AM 43.0667 -71.4500 132° Southeast 150 173 5,800 -60 Descending KA90
06:49AM 43.0333 -71.4167 144° Southeast 152 175 5,800  Level KA90
06:50AM 43.0000 -71.3833 144° Southeast 151 174 5,800  Level KA90
06:51AM 42.9667 -71.3500 144° Southeast 150 173 5,800  Level KA90
06:52AM 42.9333 -71.3167 144° Southeast 147 169 5,800  Level KA90
06:53AM 42.9000 -71.2833 144° Southeast 149 171 5,800  Level KA90
06:54AM 42.8833 -71.2500 124° Southeast 150 173 5,800  Level KA90
06:55AM 42.8333 -71.2167 154° Southeast 152 175 5,900  Climbing KA90
06:56AM 42.8000 -71.2000 160° South 148 170 5,900 -240 Level KA90
06:57AM 42.7667 -71.1833 160° South 154 177 5,500 -480 Descending KA90
06:58AM 42.7167 -71.1667 166° South 168 193 5,000 -360 Descending KA90
06:59AM 42.6667 -71.1500 166° South 166 191 4,900 -60 Descending KA90
07:00AM 42.6333 -71.1167 144° Southeast 156 180 4,900  Level KA90
07:01AM 42.6000 -71.1000 160° South 151 174 4,900  Level KA90
07:02AM 42.5500 -71.0833 166° South 149 171 4,900 -60 Level KA90
07:03AM 42.5167 -71.0667 160° South 152 175 4,800 -360 Descending KA90
07:04AM 42.4667 -71.0833 194° South 170 196 4,200 -480 Descending KA90
07:05AM 42.4167 -71.0833 180° South 166 191 3,900 -180 Descending KA90
07:06AM 42.3833 -71.1000 200° South 153 176 3,900  Level KA90
07:07AM 42.3333 -71.1167 194° South 147 169 3,900  Level KA90
07:08AM 42.3000 -71.1333 200° South 144 166 3,900 -180 Level KA90
07:09AM 42.2500 -71.1500 194° South 148 170 3,600 -420 Descending KA90
07:10AM 42.2167 -71.1667 200° South 164 189 3,200 -420 Descending KA90
07:11AM 42.1833 -71.1333 143° Southeast 166 191 2,900 -180 Descending KA90
07:12AM 42.1833 -71.0833 90° East 157 181 2,900 -360 Level KA90
07:13AM 42.2333 -71.0667 14° North 195 224 2,200 -660 Descending KA90
07:14AM 42.2833 -71.0500 14° North 181 208 1,500 -840 Descending KA90
07:15AM 42.3333 -71.0167 26° Northeast 154 177 500 -900 Descending KA90
07:17AM 42.3500 -71.0000 63° Northeast  Level FlightAware Approximate
07:24AM 42.3630 -71.0064 63° Northeast  Level Estimated
07:25AM 42.3630 -71.0064 63° Northeast  Level Estimated